Time;durP1;ratioP1;P1;durP2;ratioP2;P2;SDS_P1;SDS_P2;PMS_P1;PMS_P2;Temp;Humidity;BMP_temperature;BMP_pressure;BME280_temperature;BME280_humidity;BME280_pressure;Samples;Min_cycle;Max_cycle;Signal;HPM_P1;HPM_P2
2023/09/16 00:01:36;;;;;;;6.97;1.55;;;;;;;;;;5002633;28;20416;-64
2023/09/16 00:04:03;;;;;;;4.60;1.42;;;;;;;;;;4986478;28;20078;-65
2023/09/16 00:06:29;;;;;;;7.50;1.77;;;;;;;;;;5002484;28;20090;-63
2023/09/16 00:08:56;;;;;;;3.97;1.40;;;;;;;;;;5002888;28;20152;-64
2023/09/16 00:11:23;;;;;;;7.93;1.88;;;;;;;;;;5001932;28;20042;-67
2023/09/16 00:13:50;;;;;;;6.47;1.60;;;;;;;;;;5002881;28;20026;-65
2023/09/16 00:16:16;;;;;;;6.13;1.58;;;;;;;;;;5002344;28;20113;-63
2023/09/16 00:18:43;;;;;;;5.00;1.45;;;;;;;;;;5001658;28;20360;-63
2023/09/16 00:21:10;;;;;;;10.18;1.90;;;;;;;;;;5003029;28;20040;-63
2023/09/16 00:23:37;;;;;;;4.75;1.48;;;;;;;;;;5001711;28;20208;-63
2023/09/16 00:26:04;;;;;;;7.25;1.73;;;;;;;;;;5004201;28;20183;-63
2023/09/16 00:28:36;;;;;;;6.57;1.42;;;;;;;;;;5004172;28;20041;-63
2023/09/16 00:31:06;;;;;;;9.05;1.30;;;;;;;;;;5005806;28;20137;-65
2023/09/16 00:33:32;;;;;;;6.00;1.70;;;;;;;;;;4994539;28;20045;-62
2023/09/16 00:35:59;;;;;;;7.85;1.75;;;;;;;;;;5018540;28;20056;-64
2023/09/16 00:38:25;;;;;;;11.43;1.58;;;;;;;;;;5001909;28;20029;-64
2023/09/16 00:40:52;;;;;;;4.78;1.67;;;;;;;;;;4985251;28;20037;-66
2023/09/16 00:43:19;;;;;;;3.80;1.25;;;;;;;;;;4980214;28;20084;-66
2023/09/16 00:45:45;;;;;;;4.78;1.35;;;;;;;;;;4979527;28;20070;-65
2023/09/16 00:48:13;;;;;;;9.18;1.70;;;;;;;;;;4986991;28;20447;-64
2023/09/16 00:51:00;;;;;;;5.28;1.55;;;;;;;;;;4956746;28;20264;-66
2023/09/16 00:53:27;;;;;;;3.90;1.45;;;;;;;;;;4968387;28;20050;-65
2023/09/16 00:55:53;;;;;;;5.00;1.58;;;;;;;;;;4962644;28;20125;-64
2023/09/16 00:58:20;;;;;;;6.22;1.50;;;;;;;;;;4962922;28;20046;-64
2023/09/16 01:00:47;;;;;;;5.25;1.75;;;;;;;;;;4962181;28;20035;-63
2023/09/16 01:03:17;;;;;;;8.27;1.88;;;;;;;;;;4964092;28;20131;-64
2023/09/16 01:05:46;;;;;;;5.28;1.85;;;;;;;;;;4961639;28;20054;-64
2023/09/16 01:08:13;;;;;;;5.10;1.65;;;;;;;;;;4959373;28;20041;-66
2023/09/16 01:10:40;;;;;;;7.25;1.98;;;;;;;;;;4952641;28;20145;-64
2023/09/16 01:13:08;;;;;;;7.32;1.80;;;;;;;;;;4939258;28;20038;-63
2023/09/16 01:15:38;;;;;;;7.38;2.03;;;;;;;;;;4962933;28;20420;-65
2023/09/16 01:18:27;;;;;;;4.88;2.15;;;;;;;;;;4963946;28;20042;-66
2023/09/16 01:20:55;;;;;;;5.57;2.10;;;;;;;;;;4964863;28;20053;-64
2023/09/16 01:23:21;;;;;;;6.00;2.40;;;;;;;;;;5002959;28;20037;-62
2023/09/16 01:25:48;;;;;;;7.97;2.30;;;;;;;;;;5003983;28;20065;-64
2023/09/16 01:28:15;;;;;;;14.43;2.65;;;;;;;;;;5003885;28;20152;-64
2023/09/16 01:30:45;;;;;;;9.25;2.50;;;;;;;;;;5002901;28;20037;-63
2023/09/16 01:33:12;;;;;;;7.60;3.17;;;;;;;;;;5004496;28;20110;-63
2023/09/16 01:35:39;;;;;;;9.63;2.22;;;;;;;;;;5006463;28;20042;-62
2023/09/16 01:38:07;;;;;;;9.00;2.30;;;;;;;;;;5008824;28;20038;-63
2023/09/16 01:40:34;;;;;;;6.22;2.60;;;;;;;;;;5007989;28;20046;-65
2023/09/16 01:43:02;;;;;;;17.13;7.38;;;;;;;;;;5009236;28;20049;-62
2023/09/16 01:45:42;;;;;;;6.50;2.72;;;;;;;;;;4999452;28;20219;-64
2023/09/16 01:48:08;;;;;;;14.20;6.38;;;;;;;;;;5007521;28;20129;-63
2023/09/16 01:50:35;;;;;;;9.85;2.85;;;;;;;;;;5006871;28;20585;-65
2023/09/16 01:53:02;;;;;;;10.05;2.75;;;;;;;;;;5007228;28;20447;-64
2023/09/16 01:55:30;;;;;;;16.88;3.10;;;;;;;;;;5007463;28;20038;-64
2023/09/16 01:57:58;;;;;;;13.85;2.92;;;;;;;;;;5009462;28;20052;-66
2023/09/16 02:00:24;;;;;;;9.60;2.60;;;;;;;;;;4999232;28;20274;-68
2023/09/16 02:02:51;;;;;;;9.10;2.58;;;;;;;;;;4991828;28;20140;-67
2023/09/16 02:05:19;;;;;;;18.05;3.00;;;;;;;;;;4985750;28;20037;-65
2023/09/16 02:07:49;;;;;;;9.48;2.55;;;;;;;;;;5007030;28;20056;-66
2023/09/16 02:10:16;;;;;;;13.00;2.78;;;;;;;;;;4973009;28;20499;-65
2023/09/16 02:12:42;;;;;;;6.03;2.17;;;;;;;;;;5008561;28;20041;-65
2023/09/16 02:15:09;;;;;;;8.50;2.35;;;;;;;;;;5007396;28;20131;-66
2023/09/16 02:17:42;;;;;;;12.50;2.42;;;;;;;;;;5008639;28;20042;-66
2023/09/16 02:20:12;;;;;;;10.88;2.58;;;;;;;;;;5006984;28;20080;-66
2023/09/16 02:22:40;;;;;;;8.90;3.00;;;;;;;;;;4962862;28;20107;-67
2023/09/16 02:25:07;;;;;;;12.82;3.38;;;;;;;;;;4988746;28;20498;-64
2023/09/16 02:27:34;;;;;;;10.30;4.03;;;;;;;;;;5003877;28;20136;-65
2023/09/16 02:30:02;;;;;;;8.80;4.00;;;;;;;;;;4997393;28;20053;-65
2023/09/16 02:32:30;;;;;;;12.70;4.90;;;;;;;;;;4984613;28;20050;-66
2023/09/16 02:35:16;;;;;;;14.10;5.10;;;;;;;;;;4969432;28;20050;-66
2023/09/16 02:37:43;;;;;;;14.73;4.65;;;;;;;;;;4969995;28;20060;-69
2023/09/16 02:40:11;;;;;;;16.60;4.90;;;;;;;;;;4948146;28;20038;-66
2023/09/16 02:42:37;;;;;;;14.55;4.85;;;;;;;;;;4946997;28;20119;-66
2023/09/16 02:45:05;;;;;;;22.50;13.32;;;;;;;;;;4971649;28;20117;-65
2023/09/16 02:47:33;;;;;;;14.43;4.68;;;;;;;;;;4968017;28;20079;-65
2023/09/16 02:50:00;;;;;;;12.07;4.88;;;;;;;;;;4971260;28;20593;-65
2023/09/16 02:52:27;;;;;;;12.98;3.88;;;;;;;;;;4970953;28;20731;-66
2023/09/16 02:54:54;;;;;;;15.52;4.30;;;;;;;;;;4972171;28;20622;-66
2023/09/16 02:57:20;;;;;;;13.80;4.45;;;;;;;;;;4971516;28;20144;-66
2023/09/16 02:59:47;;;;;;;13.90;3.85;;;;;;;;;;4971002;28;20038;-67
2023/09/16 03:02:14;;;;;;;12.90;3.55;;;;;;;;;;4971372;28;20050;-65
2023/09/16 03:04:41;;;;;;;12.50;4.30;;;;;;;;;;4970853;28;20034;-65
2023/09/16 03:07:07;;;;;;;12.10;4.07;;;;;;;;;;4984232;28;20064;-64
2023/09/16 03:09:34;;;;;;;11.57;4.95;;;;;;;;;;4987504;28;20559;-67
2023/09/16 03:12:01;;;;;;;15.25;5.13;;;;;;;;;;4991611;28;20041;-65
2023/09/16 03:14:27;;;;;;;15.60;5.72;;;;;;;;;;4987400;28;20431;-63
2023/09/16 03:16:55;;;;;;;17.00;5.65;;;;;;;;;;4986749;28;20057;-64
2023/09/16 03:19:22;;;;;;;13.50;6.18;;;;;;;;;;4990192;28;20026;-65
2023/09/16 03:21:49;;;;;;;15.02;6.97;;;;;;;;;;4988490;28;20059;-62
2023/09/16 03:24:15;;;;;;;14.50;6.60;;;;;;;;;;4987713;28;20046;-67
2023/09/16 03:27:02;;;;;;;16.10;6.47;;;;;;;;;;4980057;28;20780;-67
2023/09/16 03:29:28;;;;;;;19.40;6.03;;;;;;;;;;4985030;28;20041;-64
2023/09/16 03:31:55;;;;;;;23.20;7.07;;;;;;;;;;5004016;28;20057;-66
2023/09/16 03:34:22;;;;;;;13.82;5.72;;;;;;;;;;5004437;28;20095;-66
2023/09/16 03:36:49;;;;;;;19.92;6.10;;;;;;;;;;5007387;28;20711;-66
2023/09/16 03:39:15;;;;;;;21.45;5.70;;;;;;;;;;5006168;28;20042;-66
2023/09/16 03:41:42;;;;;;;15.82;5.45;;;;;;;;;;5004953;28;20107;-66
2023/09/16 03:44:10;;;;;;;17.23;5.88;;;;;;;;;;5005505;28;20545;-67
2023/09/16 03:46:36;;;;;;;13.65;6.28;;;;;;;;;;5003950;28;20697;-66
2023/09/16 03:49:03;;;;;;;18.35;6.68;;;;;;;;;;5004040;28;20042;-65
2023/09/16 03:51:30;;;;;;;21.73;6.85;;;;;;;;;;5002844;28;20049;-65
2023/09/16 03:53:56;;;;;;;20.95;8.23;;;;;;;;;;5005437;28;20962;-65
2023/09/16 03:56:23;;;;;;;23.35;8.23;;;;;;;;;;5005094;28;20157;-65
2023/09/16 03:58:50;;;;;;;24.85;7.40;;;;;;;;;;4983831;28;20042;-65
2023/09/16 04:01:17;;;;;;;17.13;7.15;;;;;;;;;;4999234;28;20341;-66
2023/09/16 04:03:43;;;;;;;20.90;7.18;;;;;;;;;;4986350;28;20042;-65
2023/09/16 04:06:14;;;;;;;19.27;7.97;;;;;;;;;;4988700;28;20069;-66
2023/09/16 04:08:41;;;;;;;28.98;9.25;;;;;;;;;;4986623;28;20414;-66
2023/09/16 04:11:08;;;;;;;19.58;7.93;;;;;;;;;;4990485;28;20026;-66
2023/09/16 04:13:35;;;;;;;26.38;8.32;;;;;;;;;;4992023;28;20121;-65
2023/09/16 04:16:03;;;;;;;25.95;8.55;;;;;;;;;;4994688;28;20045;-65
2023/09/16 04:18:34;;;;;;;24.75;7.85;;;;;;;;;;4990789;28;20103;-66
2023/09/16 04:21:02;;;;;;;22.05;8.00;;;;;;;;;;4994634;28;20042;-66
2023/09/16 04:23:30;;;;;;;27.48;8.55;;;;;;;;;;4969609;28;20081;-65
2023/09/16 04:26:21;;;;;;;19.10;7.85;;;;;;;;;;4953917;28;20422;-66
2023/09/16 04:28:48;;;;;;;25.20;8.30;;;;;;;;;;4937036;28;20046;-66
2023/09/16 04:31:34;;;;;;;13.93;7.32;;;;;;;;;;4984091;28;20675;-66
2023/09/16 04:34:02;;;;;;;21.60;7.18;;;;;;;;;;4983151;28;20179;-65
2023/09/16 04:36:29;;;;;;;24.38;7.97;;;;;;;;;;4982252;28;20045;-66
2023/09/16 04:38:57;;;;;;;19.08;6.50;;;;;;;;;;4983443;28;20489;-63
2023/09/16 04:41:24;;;;;;;19.10;7.32;;;;;;;;;;4982557;28;20038;-66
2023/09/16 04:43:51;;;;;;;15.88;6.43;;;;;;;;;;4985835;28;20048;-64
2023/09/16 04:46:18;;;;;;;15.60;6.82;;;;;;;;;;4997878;28;20327;-65
2023/09/16 04:48:46;;;;;;;24.10;7.30;;;;;;;;;;4983148;28;20034;-64
2023/09/16 04:51:13;;;;;;;20.55;7.70;;;;;;;;;;4984936;28;21381;-63
2023/09/16 04:53:40;;;;;;;24.35;7.82;;;;;;;;;;4986050;28;21839;-64
2023/09/16 04:56:09;;;;;;;20.13;7.65;;;;;;;;;;4993683;28;20223;-66
2023/09/16 04:58:35;;;;;;;22.98;7.10;;;;;;;;;;4986783;28;20166;-65
2023/09/16 05:01:05;;;;;;;19.50;7.18;;;;;;;;;;4984771;28;20056;-67
2023/09/16 05:03:33;;;;;;;19.70;6.95;;;;;;;;;;4991322;28;20060;-67
2023/09/16 05:05:59;;;;;;;18.63;7.63;;;;;;;;;;5000859;28;20073;-66
2023/09/16 05:08:26;;;;;;;20.27;5.88;;;;;;;;;;4994977;28;21287;-67
2023/09/16 05:10:54;;;;;;;23.05;6.53;;;;;;;;;;4986310;28;20050;-67
2023/09/16 05:13:21;;;;;;;17.00;5.47;;;;;;;;;;4987155;28;21370;-64
2023/09/16 05:15:49;;;;;;;18.83;5.97;;;;;;;;;;4985824;28;20049;-65
2023/09/16 05:18:16;;;;;;;15.13;5.25;;;;;;;;;;4987063;28;20042;-66
2023/09/16 05:20:43;;;;;;;15.73;4.97;;;;;;;;;;4985406;28;20095;-65
2023/09/16 05:23:11;;;;;;;17.63;5.40;;;;;;;;;;4987458;28;20042;-65
2023/09/16 05:25:45;;;;;;;18.58;5.40;;;;;;;;;;4986088;28;20072;-67
2023/09/16 05:28:11;;;;;;;19.23;5.43;;;;;;;;;;4986123;28;20042;-64
2023/09/16 05:30:38;;;;;;;15.57;4.53;;;;;;;;;;4984498;28;20042;-65
2023/09/16 05:33:05;;;;;;;9.38;3.88;;;;;;;;;;4984091;28;20114;-65
2023/09/16 05:35:31;;;;;;;15.40;3.97;;;;;;;;;;4986379;28;20049;-65
2023/09/16 05:37:58;;;;;;;8.60;3.70;;;;;;;;;;4987019;28;20050;-66
2023/09/16 05:40:25;;;;;;;10.25;3.95;;;;;;;;;;4985361;28;20042;-65
2023/09/16 05:42:52;;;;;;;7.85;3.15;;;;;;;;;;4985247;28;20042;-65
2023/09/16 05:45:19;;;;;;;8.80;3.60;;;;;;;;;;4982896;28;20038;-65
2023/09/16 05:47:48;;;;;;;9.13;3.60;;;;;;;;;;4984943;28;20148;-65
2023/09/16 05:50:14;;;;;;;8.30;3.78;;;;;;;;;;4984733;28;20042;-65
2023/09/16 05:52:41;;;;;;;9.63;3.70;;;;;;;;;;4985192;28;20137;-65
2023/09/16 05:55:08;;;;;;;9.52;3.53;;;;;;;;;;4985917;28;20565;-65
2023/09/16 05:57:35;;;;;;;8.05;3.28;;;;;;;;;;4982813;28;20034;-67
2023/09/16 06:00:01;;;;;;;8.02;3.30;;;;;;;;;;4984894;28;20033;-67
2023/09/16 06:02:28;;;;;;;7.88;3.50;;;;;;;;;;4987932;28;20038;-65
2023/09/16 06:04:55;;;;;;;9.95;3.05;;;;;;;;;;4988599;28;20065;-66
2023/09/16 06:07:25;;;;;;;7.00;2.45;;;;;;;;;;4999765;28;20045;-65
2023/09/16 06:09:52;;;;;;;7.40;2.95;;;;;;;;;;4980666;28;20131;-65
2023/09/16 06:12:18;;;;;;;8.48;2.88;;;;;;;;;;4996657;28;20394;-65
2023/09/16 06:14:45;;;;;;;9.40;2.83;;;;;;;;;;4984071;28;20046;-65
2023/09/16 06:17:12;;;;;;;8.05;2.75;;;;;;;;;;4988808;28;20058;-64
2023/09/16 06:19:39;;;;;;;6.30;2.38;;;;;;;;;;4989031;28;20109;-65
2023/09/16 06:22:06;;;;;;;6.97;2.45;;;;;;;;;;4987034;28;20104;-64
2023/09/16 06:24:32;;;;;;;8.00;2.95;;;;;;;;;;5003215;28;20038;-64
2023/09/16 06:26:59;;;;;;;5.88;2.13;;;;;;;;;;4995754;28;20049;-63
2023/09/16 06:29:26;;;;;;;4.93;2.15;;;;;;;;;;4990156;28;20033;-65
2023/09/16 06:31:52;;;;;;;6.47;2.90;;;;;;;;;;5006848;28;20565;-64
2023/09/16 06:34:20;;;;;;;5.70;2.60;;;;;;;;;;4991039;28;20073;-66
2023/09/16 06:36:46;;;;;;;8.73;2.90;;;;;;;;;;4984661;28;20491;-65
2023/09/16 06:39:16;;;;;;;5.95;2.58;;;;;;;;;;4986773;28;20318;-66
2023/09/16 06:41:43;;;;;;;6.40;2.42;;;;;;;;;;4987819;28;20045;-64
2023/09/16 06:44:09;;;;;;;8.85;2.90;;;;;;;;;;5006707;28;20049;-66
2023/09/16 06:46:36;;;;;;;7.47;2.03;;;;;;;;;;4988961;28;20120;-65
2023/09/16 06:49:02;;;;;;;4.07;1.90;;;;;;;;;;4991762;28;20048;-64
2023/09/16 06:51:29;;;;;;;5.95;1.95;;;;;;;;;;4974224;28;20102;-64
2023/09/16 06:53:56;;;;;;;5.07;1.90;;;;;;;;;;4990485;28;20076;-66
2023/09/16 06:56:23;;;;;;;5.45;2.00;;;;;;;;;;4987565;28;20041;-64
2023/09/16 06:58:49;;;;;;;4.85;1.77;;;;;;;;;;4989829;28;20530;-68
2023/09/16 07:01:16;;;;;;;6.50;1.85;;;;;;;;;;4990412;28;20038;-65
2023/09/16 07:03:44;;;;;;;4.90;1.90;;;;;;;;;;4988735;28;20042;-65
2023/09/16 07:06:10;;;;;;;4.72;1.80;;;;;;;;;;4965407;28;20541;-65
2023/09/16 07:08:37;;;;;;;4.40;1.80;;;;;;;;;;4988935;28;20688;-65
2023/09/16 07:11:04;;;;;;;4.55;2.00;;;;;;;;;;4988959;28;20510;-65
2023/09/16 07:13:30;;;;;;;4.05;1.65;;;;;;;;;;4988959;28;20045;-65
2023/09/16 07:15:57;;;;;;;6.18;1.80;;;;;;;;;;4989720;28;20071;-65
2023/09/16 07:18:24;;;;;;;4.55;1.60;;;;;;;;;;4986164;28;20729;-66
2023/09/16 07:20:50;;;;;;;6.30;1.98;;;;;;;;;;4985517;28;20261;-65
2023/09/16 07:23:18;;;;;;;4.32;1.70;;;;;;;;;;4989110;28;20049;-64
2023/09/16 07:25:55;;;;;;;6.28;1.92;;;;;;;;;;4985401;28;20645;-64
2023/09/16 07:28:22;;;;;;;5.38;2.20;;;;;;;;;;4985323;28;20128;-64
2023/09/16 07:30:49;;;;;;;7.05;1.92;;;;;;;;;;4985736;28;20127;-64
2023/09/16 07:33:15;;;;;;;6.15;1.85;;;;;;;;;;4986575;28;20362;-64
2023/09/16 07:35:42;;;;;;;4.88;2.10;;;;;;;;;;4990074;28;20134;-65
2023/09/16 07:38:09;;;;;;;6.03;1.60;;;;;;;;;;4990249;28;20044;-64
2023/09/16 07:40:38;;;;;;;4.68;1.73;;;;;;;;;;4976306;28;20184;-64
2023/09/16 07:43:11;;;;;;;5.28;1.95;;;;;;;;;;4991175;28;20060;-64
2023/09/16 07:45:38;;;;;;;6.63;1.95;;;;;;;;;;4985509;28;20600;-65
2023/09/16 07:48:09;;;;;;;6.90;2.22;;;;;;;;;;4984999;28;20054;-65
2023/09/16 07:50:36;;;;;;;4.13;1.75;;;;;;;;;;4986004;28;20074;-63
2023/09/16 07:53:03;;;;;;;5.20;1.80;;;;;;;;;;4985010;28;20039;-63
2023/09/16 07:55:29;;;;;;;4.05;1.85;;;;;;;;;;4983202;28;20513;-65
2023/09/16 07:57:56;;;;;;;5.90;1.95;;;;;;;;;;4985601;28;20038;-63
2023/09/16 08:00:23;;;;;;;5.78;2.10;;;;;;;;;;4988653;28;20609;-66
2023/09/16 08:02:49;;;;;;;6.53;2.05;;;;;;;;;;4985990;28;20030;-64
2023/09/16 08:05:16;;;;;;;4.72;1.67;;;;;;;;;;4986091;28;20042;-63
2023/09/16 08:07:42;;;;;;;8.93;2.00;;;;;;;;;;4985020;28;20050;-64
2023/09/16 08:10:09;;;;;;;4.60;1.90;;;;;;;;;;4985369;28;20744;-64
2023/09/16 08:12:36;;;;;;;6.07;1.70;;;;;;;;;;4984390;28;20415;-64
2023/09/16 08:15:05;;;;;;;4.88;1.70;;;;;;;;;;4984974;28;20125;-65
2023/09/16 08:17:31;;;;;;;5.35;1.80;;;;;;;;;;4984325;28;20486;-65
2023/09/16 08:19:58;;;;;;;5.65;1.98;;;;;;;;;;4985046;28;20042;-64
2023/09/16 08:22:25;;;;;;;4.80;1.73;;;;;;;;;;4983599;28;20050;-64
2023/09/16 08:24:51;;;;;;;4.78;1.50;;;;;;;;;;4984731;28;20041;-65
2023/09/16 08:27:19;;;;;;;5.15;1.95;;;;;;;;;;4986208;28;20552;-63
2023/09/16 08:29:47;;;;;;;4.22;1.95;;;;;;;;;;4985394;28;20042;-65
2023/09/16 08:32:13;;;;;;;7.20;2.03;;;;;;;;;;4986574;28;20190;-64
2023/09/16 08:34:40;;;;;;;4.65;1.98;;;;;;;;;;4985275;28;20049;-64
2023/09/16 08:37:06;;;;;;;4.70;2.20;;;;;;;;;;4988456;28;20034;-64
2023/09/16 08:39:33;;;;;;;4.53;2.00;;;;;;;;;;4988608;28;20156;-65
2023/09/16 08:42:08;;;;;;;6.97;2.50;;;;;;;;;;4988602;28;20117;-65
2023/09/16 08:44:37;;;;;;;5.70;2.17;;;;;;;;;;4983988;28;20228;-67
2023/09/16 08:47:26;;;;;;;4.82;2.17;;;;;;;;;;4983361;28;20177;-64
2023/09/16 08:49:53;;;;;;;7.05;2.38;;;;;;;;;;4995106;28;20038;-63
2023/09/16 08:52:22;;;;;;;5.43;2.65;;;;;;;;;;4986856;28;20131;-66
2023/09/16 08:54:50;;;;;;;5.70;2.72;;;;;;;;;;4986669;28;20045;-65
2023/09/16 08:57:17;;;;;;;6.35;2.35;;;;;;;;;;4995639;28;20057;-64
2023/09/16 08:59:44;;;;;;;4.80;2.30;;;;;;;;;;5002759;28;20048;-64
2023/09/16 09:02:11;;;;;;;4.55;2.20;;;;;;;;;;4987602;28;20057;-65
2023/09/16 09:04:39;;;;;;;5.50;2.35;;;;;;;;;;5003448;28;20045;-63
2023/09/16 09:07:06;;;;;;;6.13;2.20;;;;;;;;;;5003895;28;20058;-64
2023/09/16 09:09:33;;;;;;;5.90;2.58;;;;;;;;;;5002628;28;20063;-63
2023/09/16 09:11:59;;;;;;;5.68;2.88;;;;;;;;;;4999040;28;20050;-63
2023/09/16 09:14:27;;;;;;;8.13;2.25;;;;;;;;;;4982967;28;20039;-63
2023/09/16 09:16:55;;;;;;;5.28;2.58;;;;;;;;;;4984632;28;20115;-63
2023/09/16 09:19:21;;;;;;;5.82;2.60;;;;;;;;;;4985151;28;20034;-64
2023/09/16 09:21:50;;;;;;;6.05;2.50;;;;;;;;;;4983531;28;20116;-63
2023/09/16 09:24:17;;;;;;;5.78;2.55;;;;;;;;;;4992167;28;20038;-64
2023/09/16 09:26:43;;;;;;;7.07;2.80;;;;;;;;;;5004018;28;20698;-63
2023/09/16 09:29:12;;;;;;;6.45;2.70;;;;;;;;;;5005295;28;20061;-63
2023/09/16 09:31:39;;;;;;;11.25;2.72;;;;;;;;;;5004035;28;20153;-63
2023/09/16 09:34:15;;;;;;;5.97;2.72;;;;;;;;;;4986686;28;20080;-63
2023/09/16 09:36:42;;;;;;;7.32;2.65;;;;;;;;;;4993261;28;20503;-63
2023/09/16 09:39:09;;;;;;;4.88;2.05;;;;;;;;;;5002456;28;20167;-64
2023/09/16 09:41:44;;;;;;;6.28;2.22;;;;;;;;;;5002450;28;20562;-65
2023/09/16 09:44:13;;;;;;;5.78;2.33;;;;;;;;;;5005066;28;20037;-64
2023/09/16 09:46:40;;;;;;;4.93;2.42;;;;;;;;;;4990328;28;20565;-63
2023/09/16 09:49:10;;;;;;;5.53;2.60;;;;;;;;;;5000762;28;20498;-66
2023/09/16 09:51:38;;;;;;;7.82;2.20;;;;;;;;;;5003148;28;20049;-60
2023/09/16 09:54:06;;;;;;;5.20;2.50;;;;;;;;;;5004751;28;20045;-63
2023/09/16 09:56:33;;;;;;;4.35;2.03;;;;;;;;;;5008524;28;21148;-64
2023/09/16 09:59:00;;;;;;;8.45;2.50;;;;;;;;;;5010654;28;21517;-63
2023/09/16 10:01:31;;;;;;;5.40;2.17;;;;;;;;;;5007682;28;20041;-65
2023/09/16 10:03:57;;;;;;;5.22;2.03;;;;;;;;;;5008846;28;20427;-63
2023/09/16 10:06:24;;;;;;;5.15;2.05;;;;;;;;;;5008245;28;20049;-63
2023/09/16 10:08:51;;;;;;;6.07;2.40;;;;;;;;;;4989405;28;20511;-65
2023/09/16 10:11:22;;;;;;;6.47;2.75;;;;;;;;;;5009575;28;20045;-64
2023/09/16 10:13:49;;;;;;;5.50;2.00;;;;;;;;;;4987423;28;20606;-64
2023/09/16 10:16:16;;;;;;;6.22;2.05;;;;;;;;;;4997398;28;20049;-65
2023/09/16 10:18:42;;;;;;;5.80;2.10;;;;;;;;;;5004955;28;20096;-64
2023/09/16 10:21:12;;;;;;;4.05;1.90;;;;;;;;;;5005560;28;20041;-64
2023/09/16 10:23:56;;;;;;;4.65;2.10;;;;;;;;;;4986729;28;20597;-64
2023/09/16 10:26:23;;;;;;;4.63;1.85;;;;;;;;;;4996651;28;20052;-64
2023/09/16 10:28:52;;;;;;;4.80;1.90;;;;;;;;;;5011020;28;20025;-64
2023/09/16 10:31:19;;;;;;;4.82;1.95;;;;;;;;;;4984738;28;20473;-63
2023/09/16 10:33:46;;;;;;;4.32;2.00;;;;;;;;;;4992613;28;20045;-64
2023/09/16 10:36:13;;;;;;;7.85;2.38;;;;;;;;;;5010726;28;20041;-65
2023/09/16 10:38:41;;;;;;;4.50;2.17;;;;;;;;;;5011020;28;20037;-64
2023/09/16 10:41:08;;;;;;;6.13;2.45;;;;;;;;;;5011996;28;20347;-63
2023/09/16 10:43:37;;;;;;;6.05;2.30;;;;;;;;;;5011358;28;20195;-64
2023/09/16 10:46:03;;;;;;;5.47;2.17;;;;;;;;;;5010566;28;20675;-64
2023/09/16 10:48:31;;;;;;;4.47;1.83;;;;;;;;;;5009481;28;20057;-64
2023/09/16 10:51:01;;;;;;;4.97;2.20;;;;;;;;;;5014189;28;20052;-64
2023/09/16 10:53:34;;;;;;;7.00;2.10;;;;;;;;;;5013020;28;20123;-63
2023/09/16 10:56:06;;;;;;;6.07;2.13;;;;;;;;;;4992713;28;20053;-63
2023/09/16 10:58:37;;;;;;;5.13;2.10;;;;;;;;;;5011060;28;20037;-63
2023/09/16 11:01:05;;;;;;;6.40;2.25;;;;;;;;;;5002230;28;20034;-63
2023/09/16 11:03:33;;;;;;;4.40;1.80;;;;;;;;;;5001224;28;20480;-63
2023/09/16 11:06:01;;;;;;;5.13;2.03;;;;;;;;;;5003212;28;20042;-67
2023/09/16 11:08:28;;;;;;;5.15;2.10;;;;;;;;;;4986107;28;20133;-64
2023/09/16 11:10:56;;;;;;;4.95;1.75;;;;;;;;;;4986746;28;20317;-63
2023/09/16 11:13:23;;;;;;;4.72;2.10;;;;;;;;;;4987068;28;22359;-68
2023/09/16 11:15:50;;;;;;;7.15;2.08;;;;;;;;;;4987970;28;20049;-64
2023/09/16 11:18:17;;;;;;;4.07;1.67;;;;;;;;;;4991231;28;20070;-64
2023/09/16 11:20:43;;;;;;;4.28;1.70;;;;;;;;;;4986199;28;20034;-64
2023/09/16 11:23:10;;;;;;;4.60;1.80;;;;;;;;;;4987588;28;20046;-64
2023/09/16 11:25:38;;;;;;;6.57;1.85;;;;;;;;;;4987415;28;20334;-63
2023/09/16 11:28:08;;;;;;;4.60;1.95;;;;;;;;;;4975134;28;20053;-65
2023/09/16 11:30:36;;;;;;;4.70;1.80;;;;;;;;;;4970634;28;20042;-63
2023/09/16 11:33:08;;;;;;;6.68;2.20;;;;;;;;;;4984561;28;20042;-62
2023/09/16 11:35:38;;;;;;;5.55;1.83;;;;;;;;;;4986868;28;20546;-63
2023/09/16 11:38:05;;;;;;;5.72;1.80;;;;;;;;;;4985443;28;20049;-64
2023/09/16 11:40:34;;;;;;;5.10;1.92;;;;;;;;;;4990349;28;20072;-64
2023/09/16 11:43:01;;;;;;;5.13;2.20;;;;;;;;;;4988552;28;20037;-63
2023/09/16 11:45:29;;;;;;;6.40;1.92;;;;;;;;;;4988322;28;20128;-64
2023/09/16 11:47:55;;;;;;;5.70;1.60;;;;;;;;;;5002512;28;20495;-63
2023/09/16 11:50:23;;;;;;;4.80;2.00;;;;;;;;;;5003554;28;20038;-63
2023/09/16 11:52:49;;;;;;;6.78;1.58;;;;;;;;;;4987372;28;20050;-63
2023/09/16 11:55:17;;;;;;;5.20;1.92;;;;;;;;;;5019819;28;20052;-62
2023/09/16 11:57:45;;;;;;;4.20;1.83;;;;;;;;;;4996000;28;20053;-64
2023/09/16 12:00:12;;;;;;;9.43;2.00;;;;;;;;;;5022794;28;20036;-63
2023/09/16 12:02:39;;;;;;;6.97;2.25;;;;;;;;;;5008115;28;20420;-63
2023/09/16 12:05:06;;;;;;;4.30;1.88;;;;;;;;;;5022194;28;20126;-64
2023/09/16 12:07:33;;;;;;;6.38;2.13;;;;;;;;;;5021792;28;20098;-64
2023/09/16 12:10:00;;;;;;;7.22;1.92;;;;;;;;;;5021801;28;20044;-63
2023/09/16 12:12:28;;;;;;;5.95;2.00;;;;;;;;;;5020196;28;20037;-63
2023/09/16 12:14:55;;;;;;;5.75;1.90;;;;;;;;;;5021972;28;20096;-63
2023/09/16 12:17:22;;;;;;;6.65;2.00;;;;;;;;;;4999444;28;20562;-64
2023/09/16 12:19:52;;;;;;;7.60;2.00;;;;;;;;;;5010773;28;20043;-63
2023/09/16 12:22:18;;;;;;;12.68;2.60;;;;;;;;;;5022679;28;20536;-62
2023/09/16 12:24:45;;;;;;;7.25;2.10;;;;;;;;;;5012331;28;20048;-63
2023/09/16 12:27:12;;;;;;;13.02;2.33;;;;;;;;;;4992930;28;20650;-63
2023/09/16 12:29:39;;;;;;;6.63;2.30;;;;;;;;;;4983010;28;20165;-63
2023/09/16 12:32:12;;;;;;;12.07;2.63;;;;;;;;;;4984003;28;20100;-63
2023/09/16 12:34:39;;;;;;;10.07;2.33;;;;;;;;;;4984376;28;20507;-65
2023/09/16 12:37:06;;;;;;;6.10;2.40;;;;;;;;;;4985551;28;20037;-63
2023/09/16 12:39:35;;;;;;;6.97;2.35;;;;;;;;;;4984416;28;20153;-64
2023/09/16 12:42:03;;;;;;;10.02;2.45;;;;;;;;;;4984937;28;20045;-63
2023/09/16 12:44:31;;;;;;;7.95;2.90;;;;;;;;;;4983337;28;20058;-64
2023/09/16 12:47:00;;;;;;;6.93;2.30;;;;;;;;;;4983715;28;20041;-63
2023/09/16 12:49:46;;;;;;;5.40;2.00;;;;;;;;;;5000999;28;20409;-63
2023/09/16 12:52:15;;;;;;;5.20;2.40;;;;;;;;;;4951768;28;20042;-66
2023/09/16 12:54:42;;;;;;;4.93;1.90;;;;;;;;;;4957015;28;20732;-64
2023/09/16 12:57:11;;;;;;;5.97;2.30;;;;;;;;;;4958016;28;20206;-67
2023/09/16 12:59:39;;;;;;;5.35;1.88;;;;;;;;;;4970758;28;20050;-62
2023/09/16 13:02:06;;;;;;;5.68;1.98;;;;;;;;;;4962307;28;20124;-64
2023/09/16 13:04:32;;;;;;;4.72;1.80;;;;;;;;;;4985916;28;20042;-63
2023/09/16 13:06:59;;;;;;;5.07;1.95;;;;;;;;;;4985898;28;20058;-64
2023/09/16 13:09:30;;;;;;;5.47;1.85;;;;;;;;;;4974334;28;20053;-63
2023/09/16 13:11:58;;;;;;;4.50;1.88;;;;;;;;;;4968902;28;20042;-63
2023/09/16 13:14:26;;;;;;;6.47;1.92;;;;;;;;;;4987297;28;20066;-63
2023/09/16 13:16:52;;;;;;;5.80;1.92;;;;;;;;;;4971404;28;20050;-63
2023/09/16 13:19:22;;;;;;;5.70;2.17;;;;;;;;;;4972247;28;20042;-63
2023/09/16 13:21:49;;;;;;;5.32;2.00;;;;;;;;;;4970597;28;20042;-63
2023/09/16 13:24:15;;;;;;;6.75;2.25;;;;;;;;;;4989276;28;20558;-66
2023/09/16 13:26:49;;;;;;;5.25;2.00;;;;;;;;;;4962579;28;20169;-63
2023/09/16 13:29:16;;;;;;;4.95;2.20;;;;;;;;;;4991018;28;20057;-63
2023/09/16 13:31:43;;;;;;;7.45;2.33;;;;;;;;;;5006778;28;20133;-64
2023/09/16 13:34:09;;;;;;;5.82;2.17;;;;;;;;;;4991907;28;20037;-64
2023/09/16 13:36:38;;;;;;;4.75;2.00;;;;;;;;;;5008348;28;20426;-64
2023/09/16 13:39:07;;;;;;;5.53;1.95;;;;;;;;;;4991987;28;20045;-64
2023/09/16 13:41:34;;;;;;;7.57;2.22;;;;;;;;;;4992669;28;20132;-64
2023/09/16 13:44:00;;;;;;;5.30;2.10;;;;;;;;;;5010849;28;20051;-65
2023/09/16 13:46:28;;;;;;;6.07;2.00;;;;;;;;;;4995749;28;20496;-64
2023/09/16 13:48:55;;;;;;;6.15;1.90;;;;;;;;;;5011421;28;20143;-64
2023/09/16 13:51:22;;;;;;;7.22;2.25;;;;;;;;;;4996255;28;20034;-63
2023/09/16 13:53:56;;;;;;;4.68;2.03;;;;;;;;;;4980691;28;20399;-64
2023/09/16 13:56:25;;;;;;;5.72;2.08;;;;;;;;;;5006975;28;20549;-64
2023/09/16 13:58:52;;;;;;;4.97;1.70;;;;;;;;;;5008133;28;21503;-64
2023/09/16 14:01:19;;;;;;;10.02;2.50;;;;;;;;;;5014484;28;20137;-64
2023/09/16 14:03:46;;;;;;;11.57;2.75;;;;;;;;;;5029672;28;20052;-64
2023/09/16 14:06:12;;;;;;;10.40;2.55;;;;;;;;;;5028493;28;20030;-65
2023/09/16 14:08:39;;;;;;;9.75;2.33;;;;;;;;;;5010826;28;20045;-63
2023/09/16 14:11:06;;;;;;;9.52;2.17;;;;;;;;;;5014714;28;20038;-65
2023/09/16 14:13:33;;;;;;;5.60;2.35;;;;;;;;;;4987978;28;20092;-64
2023/09/16 14:16:01;;;;;;;9.13;2.38;;;;;;;;;;5008041;28;20041;-66
2023/09/16 14:18:28;;;;;;;8.30;2.25;;;;;;;;;;5007576;28;20033;-59
2023/09/16 14:20:55;;;;;;;5.25;2.20;;;;;;;;;;5009532;28;20034;-60
2023/09/16 14:23:21;;;;;;;8.95;2.22;;;;;;;;;;5005984;28;20056;-58
2023/09/16 14:25:48;;;;;;;11.70;2.70;;;;;;;;;;5005014;28;20045;-61
2023/09/16 14:28:14;;;;;;;13.95;2.53;;;;;;;;;;5008003;28;20642;-61
2023/09/16 14:30:41;;;;;;;10.00;2.30;;;;;;;;;;5007042;28;20033;-65
2023/09/16 14:33:08;;;;;;;9.35;2.55;;;;;;;;;;5008040;28;20152;-64
2023/09/16 14:35:34;;;;;;;9.75;2.45;;;;;;;;;;5006917;28;20038;-63
2023/09/16 14:38:03;;;;;;;8.73;2.40;;;;;;;;;;5007599;28;20080;-64
2023/09/16 14:40:49;;;;;;;9.82;2.58;;;;;;;;;;4963700;28;20046;-65
2023/09/16 14:43:15;;;;;;;7.25;2.58;;;;;;;;;;4969823;28;20050;-63